Time;durP1;ratioP1;P1;durP2;ratioP2;P2;SDS_P1;SDS_P2;PMS_P1;PMS_P2;Temp;Humidity;BMP_temperature;BMP_pressure;BME280_temperature;BME280_humidity;BME280_pressure;Samples;Min_cycle;Max_cycle;Signal;HPM_P1;HPM_P2
2021/07/08 00:00:57;;;;;;;2.60;1.70;;;17.30;99.90;;;;;;5031712;28;20568;-73
2021/07/08 00:03:43;;;;;;;6.20;2.03;;;17.40;99.90;;;;;;5030251;28;20789;-72
2021/07/08 00:06:28;;;;;;;4.00;2.33;;;17.50;99.90;;;;;;5028782;28;21007;-73
2021/07/08 00:09:15;;;;;;;4.20;2.07;;;17.40;99.90;;;;;;5035983;28;20397;-73
2021/07/08 00:12:02;;;;;;;4.80;2.17;;;17.40;99.90;;;;;;5029949;28;20470;-73
2021/07/08 00:14:47;;;;;;;3.43;2.13;;;17.50;99.90;;;;;;5031243;28;21019;-72
2021/07/08 00:17:33;;;;;;;4.10;2.10;;;17.50;99.90;;;;;;5031096;28;20432;-73
2021/07/08 00:20:21;;;;;;;7.50;2.47;;;17.40;99.90;;;;;;5031497;28;20398;-73
2021/07/08 00:23:07;;;;;;;3.23;1.80;;;17.40;99.90;;;;;;5027048;28;20569;-73
2021/07/08 00:25:54;;;;;;;5.60;2.17;;;17.50;99.90;;;;;;5025255;28;20500;-73
2021/07/08 00:28:41;;;;;;;2.73;1.97;;;17.50;99.90;;;;;;5018210;28;20413;-73
2021/07/08 00:31:27;;;;;;;7.27;3.13;;;17.60;99.90;;;;;;5025131;28;20474;-73
2021/07/08 00:34:13;;;;;;;5.07;1.70;;;17.60;99.90;;;;;;5027971;28;20398;-73
2021/07/08 00:36:59;;;;;;;2.90;1.90;;;17.70;99.90;;;;;;5031404;28;20453;-73
2021/07/08 00:39:44;;;;;;;5.20;2.40;;;17.60;99.90;;;;;;5034530;28;20942;-73
2021/07/08 00:42:30;;;;;;;7.20;2.37;;;17.50;99.90;;;;;;5028027;28;20594;-73
2021/07/08 00:45:20;;;;;;;5.93;2.10;;;17.40;99.90;;;;;;5027729;28;20484;-73
2021/07/08 00:48:06;;;;;;;9.87;2.20;;;17.40;99.90;;;;;;5024981;28;20485;-73
2021/07/08 00:50:52;;;;;;;3.37;2.00;;;17.40;99.90;;;;;;5028062;28;20984;-73
2021/07/08 00:53:38;;;;;;;8.10;1.87;;;17.40;99.90;;;;;;5030314;28;20525;-73
2021/07/08 00:56:25;;;;;;;4.50;2.60;;;17.30;99.90;;;;;;5030545;28;20500;-73
2021/07/08 00:59:11;;;;;;;3.67;2.10;;;17.20;99.90;;;;;;5030624;28;20972;-73
2021/07/08 01:02:00;;;;;;;3.77;2.17;;;17.30;99.90;;;;;;5035071;28;20437;-73
2021/07/08 01:04:46;;;;;;;6.57;1.73;;;17.40;99.90;;;;;;5027325;28;20468;-73
2021/07/08 01:07:32;;;;;;;5.53;2.07;;;17.40;99.90;;;;;;5028276;28;20518;-73
2021/07/08 01:10:18;;;;;;;5.83;1.90;;;17.40;99.90;;;;;;5034648;28;20593;-73
2021/07/08 01:13:04;;;;;;;6.93;2.30;;;17.40;99.90;;;;;;5028734;28;20574;-73
2021/07/08 01:15:50;;;;;;;4.50;1.47;;;17.40;99.90;;;;;;5028042;28;20915;-73
2021/07/08 01:18:37;;;;;;;4.47;1.73;;;17.30;99.90;;;;;;5023930;28;20432;-73
2021/07/08 01:21:27;;;;;;;2.63;1.53;;;17.40;99.90;;;;;;5034522;28;20422;-73
2021/07/08 01:24:12;;;;;;;4.67;2.27;;;17.40;99.90;;;;;;5034812;28;20430;-74
2021/07/08 01:26:59;;;;;;;5.57;1.80;;;17.50;99.90;;;;;;5030389;28;20854;-73
2021/07/08 01:29:45;;;;;;;4.40;1.70;;;17.50;99.90;;;;;;5031305;28;20427;-73
2021/07/08 01:32:31;;;;;;;4.93;2.50;;;17.60;99.90;;;;;;5027592;28;20455;-73
2021/07/08 01:35:17;;;;;;;8.47;2.50;;;17.50;99.90;;;;;;5033057;28;20474;-73
2021/07/08 01:38:04;;;;;;;3.07;1.77;;;17.30;99.90;;;;;;5032035;28;20560;-73
2021/07/08 01:40:49;;;;;;;3.10;2.37;;;17.20;99.90;;;;;;5027901;28;20501;-73
2021/07/08 01:43:37;;;;;;;5.73;2.03;;;17.20;99.90;;;;;;5034301;28;20436;-73
2021/07/08 01:46:23;;;;;;;2.33;1.63;;;17.30;99.90;;;;;;5034310;28;20610;-73
2021/07/08 01:49:09;;;;;;;5.73;1.93;;;17.30;99.90;;;;;;5034418;28;20426;-73
2021/07/08 01:51:55;;;;;;;3.30;1.60;;;17.40;99.90;;;;;;5034054;28;20587;-73
2021/07/08 01:54:42;;;;;;;2.93;1.80;;;17.50;99.90;;;;;;5033672;28;20402;-73
2021/07/08 01:57:27;;;;;;;3.00;2.00;;;17.50;99.90;;;;;;5031414;28;20498;-73
2021/07/08 02:00:15;;;;;;;3.00;1.60;;;17.50;99.90;;;;;;5025741;28;20990;-73
2021/07/08 02:03:01;;;;;;;4.83;1.87;;;17.60;99.90;;;;;;5061340;22;20465;-76
2021/07/08 02:05:47;;;;;;;4.57;1.70;;;17.50;99.90;;;;;;5043208;28;20558;-75
2021/07/08 02:08:32;;;;;;;3.13;1.83;;;17.50;99.90;;;;;;5038580;28;20421;-75
2021/07/08 02:11:20;;;;;;;3.87;2.27;;;17.40;99.90;;;;;;5024973;28;20948;-75
2021/07/08 02:14:05;;;;;;;4.90;2.03;;;17.20;99.90;;;;;;5043268;28;20421;-76
2021/07/08 02:16:51;;;;;;;5.10;1.87;;;17.10;99.90;;;;;;5040597;28;20473;-74
2021/07/08 02:19:37;;;;;;;2.70;1.80;;;17.00;99.90;;;;;;5034007;28;20880;-77
2021/07/08 02:22:22;;;;;;;3.13;2.03;;;17.00;99.90;;;;;;5050106;28;20449;-76
2021/07/08 02:25:09;;;;;;;6.13;2.23;;;17.00;99.90;;;;;;5035501;28;20887;-76
2021/07/08 02:27:57;;;;;;;3.20;2.10;;;16.90;99.90;;;;;;5033842;28;20878;-76
2021/07/08 02:30:43;;;;;;;6.33;2.27;;;16.80;99.90;;;;;;5034010;28;20546;-76
2021/07/08 02:33:29;;;;;;;5.20;2.10;;;16.90;99.90;;;;;;5033964;28;20422;-76
2021/07/08 02:36:15;;;;;;;5.00;1.90;;;16.90;99.90;;;;;;5032670;28;20505;-76
2021/07/08 02:39:00;;;;;;;3.80;2.03;;;16.90;99.90;;;;;;5032176;28;20448;-74
2021/07/08 02:41:46;;;;;;;3.27;1.90;;;17.00;99.90;;;;;;5032107;28;20479;-76
2021/07/08 02:44:34;;;;;;;3.97;2.60;;;17.00;99.90;;;;;;5033519;28;20955;-77
2021/07/08 02:47:20;;;;;;;4.43;1.97;;;17.20;99.90;;;;;;5013880;28;20516;-75
2021/07/08 02:50:07;;;;;;;2.70;1.93;;;17.20;99.90;;;;;;5013588;28;21101;-76
2021/07/08 02:52:53;;;;;;;5.00;2.20;;;17.20;99.90;;;;;;5029993;28;21200;-77
2021/07/08 02:55:40;;;;;;;3.90;2.47;;;17.20;99.90;;;;;;5031961;28;20512;-76
2021/07/08 02:58:26;;;;;;;3.40;2.27;;;17.30;99.90;;;;;;5033751;28;20462;-77
2021/07/08 03:01:13;;;;;;;2.93;1.87;;;17.00;99.90;;;;;;5032231;28;20456;-75
2021/07/08 03:03:59;;;;;;;3.60;2.53;;;17.00;99.90;;;;;;5041020;28;20542;-77
2021/07/08 03:06:44;;;;;;;3.33;1.97;;;17.10;99.90;;;;;;5051560;28;20424;-76
2021/07/08 03:09:30;;;;;;;2.60;1.80;;;17.10;99.90;;;;;;5019463;28;20426;-76
2021/07/08 03:12:16;;;;;;;3.50;1.87;;;17.10;99.90;;;;;;5041029;28;20590;-76
2021/07/08 03:15:02;;;;;;;6.77;2.23;;;17.10;99.90;;;;;;5033263;28;20463;-76
2021/07/08 03:17:49;;;;;;;6.60;1.80;;;17.00;99.90;;;;;;5031369;28;20646;-76
2021/07/08 03:20:35;;;;;;;4.67;2.00;;;17.00;99.90;;;;;;5033829;28;20414;-77
2021/07/08 03:23:21;;;;;;;4.00;1.80;;;17.00;99.90;;;;;;5033446;28;20490;-77
2021/07/08 03:26:06;;;;;;;2.37;1.90;;;17.00;99.90;;;;;;5028358;28;20395;-77
2021/07/08 03:28:52;;;;;;;2.57;1.80;;;17.00;99.90;;;;;;5032758;28;20952;-76
2021/07/08 03:31:38;;;;;;;3.33;2.00;;;17.00;99.90;;;;;;5032579;28;20429;-77
2021/07/08 03:34:25;;;;;;;2.43;2.03;;;17.00;99.90;;;;;;5038447;28;21014;-77
2021/07/08 03:37:10;;;;;;;3.83;2.03;;;17.00;99.90;;;;;;5037138;28;20418;-75
2021/07/08 03:39:56;;;;;;;4.47;2.70;;;17.00;99.90;;;;;;5038433;28;20449;-77
2021/07/08 03:42:42;;;;;;;2.70;2.20;;;17.10;99.90;;;;;;5036001;28;20479;-77
2021/07/08 03:45:28;;;;;;;12.73;2.30;;;17.20;99.90;;;;;;5032123;28;20418;-77
2021/07/08 03:48:13;;;;;;;4.83;1.93;;;17.10;99.90;;;;;;5031228;28;20457;-77
2021/07/08 03:51:00;;;;;;;3.00;2.20;;;17.20;99.90;;;;;;5038913;28;20848;-76
2021/07/08 03:53:46;;;;;;;3.87;2.40;;;17.20;99.90;;;;;;5040969;28;20476;-76
2021/07/08 03:56:32;;;;;;;3.13;2.20;;;17.00;99.90;;;;;;5034085;28;20511;-76
2021/07/08 03:59:18;;;;;;;3.93;2.10;;;16.90;99.90;;;;;;5032152;28;20451;-76
2021/07/08 04:02:04;;;;;;;3.23;2.13;;;17.00;99.90;;;;;;5031987;28;20470;-77
2021/07/08 04:04:50;;;;;;;2.60;1.87;;;17.10;99.90;;;;;;5038649;28;20502;-75
2021/07/08 04:07:37;;;;;;;3.10;2.00;;;17.20;99.90;;;;;;5012441;28;20472;-76
2021/07/08 04:10:23;;;;;;;9.73;1.93;;;17.20;99.90;;;;;;5023502;28;20463;-77
2021/07/08 04:13:11;;;;;;;6.13;2.00;;;17.10;99.90;;;;;;5034753;28;20449;-76
2021/07/08 04:15:57;;;;;;;3.60;2.33;;;17.10;99.90;;;;;;5033505;28;20430;-76
2021/07/08 04:18:43;;;;;;;5.40;2.30;;;17.10;99.90;;;;;;5030031;28;20508;-77
2021/07/08 04:21:28;;;;;;;2.83;2.00;;;17.20;99.90;;;;;;5040607;28;20472;-75
2021/07/08 04:24:15;;;;;;;6.00;2.07;;;17.20;99.90;;;;;;5037647;28;21531;-77
2021/07/08 04:27:01;;;;;;;3.37;1.73;;;17.20;99.90;;;;;;5030800;28;20466;-77
2021/07/08 04:29:47;;;;;;;5.87;1.93;;;17.30;99.90;;;;;;5030501;28;20952;-75
2021/07/08 04:32:33;;;;;;;3.13;1.90;;;17.20;99.90;;;;;;5040864;28;20475;-76
2021/07/08 04:35:20;;;;;;;2.90;2.00;;;17.20;99.90;;;;;;5043455;28;20966;-76
2021/07/08 04:38:07;;;;;;;4.23;1.57;;;17.20;99.90;;;;;;5037697;28;20430;-77
2021/07/08 04:40:54;;;;;;;2.93;1.90;;;17.20;99.90;;;;;;5024727;28;20454;-77
2021/07/08 04:43:40;;;;;;;6.57;1.67;;;17.30;99.90;;;;;;5033356;28;20931;-77
2021/07/08 04:46:26;;;;;;;5.87;2.13;;;17.40;99.90;;;;;;5037408;28;21070;-77
2021/07/08 04:49:13;;;;;;;2.80;2.17;;;17.50;99.90;;;;;;5041779;28;20509;-77
2021/07/08 04:51:58;;;;;;;3.10;1.80;;;17.30;99.90;;;;;;5027892;28;20996;-77
2021/07/08 04:54:43;;;;;;;5.07;1.90;;;17.30;99.90;;;;;;5029360;28;20443;-77
2021/07/08 04:57:30;;;;;;;4.57;1.90;;;17.40;99.90;;;;;;5049568;28;20401;-77
2021/07/08 05:00:19;;;;;;;5.27;2.10;;;17.40;99.90;;;;;;5036040;28;20433;-77
2021/07/08 05:03:07;;;;;;;3.93;2.10;;;17.40;99.90;;;;;;5048142;28;20953;-77
2021/07/08 05:05:53;;;;;;;5.50;1.70;;;17.40;99.90;;;;;;5042144;28;20895;-77
2021/07/08 05:08:40;;;;;;;4.40;1.63;;;17.40;99.90;;;;;;5030577;28;20446;-77
2021/07/08 05:11:26;;;;;;;2.90;1.90;;;17.40;99.90;;;;;;5040401;28;20463;-77
2021/07/08 05:14:13;;;;;;;2.63;1.97;;;17.40;99.90;;;;;;5051377;28;20434;-75
2021/07/08 05:16:59;;;;;;;3.23;2.13;;;17.50;99.90;;;;;;5031721;28;20927;-77
2021/07/08 05:19:44;;;;;;;2.23;1.60;;;17.60;99.90;;;;;;5031885;28;20471;-77
2021/07/08 05:22:32;;;;;;;6.70;1.97;;;17.60;99.90;;;;;;5040834;28;20474;-77
2021/07/08 05:25:18;;;;;;;2.50;1.77;;;17.50;99.90;;;;;;5030525;28;20443;-77
2021/07/08 05:28:05;;;;;;;3.30;1.57;;;17.50;99.90;;;;;;5040498;28;20453;-77
2021/07/08 05:30:52;;;;;;;5.07;2.00;;;17.60;99.90;;;;;;5028945;28;20458;-77
2021/07/08 05:33:38;;;;;;;3.30;1.70;;;17.70;99.90;;;;;;5038515;28;21018;-76
2021/07/08 05:36:23;;;;;;;3.40;1.93;;;17.80;99.90;;;;;;5051692;28;20545;-76
2021/07/08 05:39:09;;;;;;;7.03;2.33;;;17.90;99.90;;;;;;5033262;28;20458;-78
2021/07/08 05:41:55;;;;;;;6.63;2.27;;;18.00;99.90;;;;;;5042807;28;20833;-76
2021/07/08 05:44:40;;;;;;;4.33;2.80;;;18.00;99.90;;;;;;5034972;28;20423;-76
2021/07/08 05:47:27;;;;;;;6.77;2.63;;;18.10;99.90;;;;;;5035093;28;20584;-77
2021/07/08 05:50:14;;;;;;;4.67;2.90;;;18.20;99.90;;;;;;5018255;28;21046;-77
2021/07/08 05:52:59;;;;;;;4.23;3.30;;;18.30;99.90;;;;;;5015006;28;20562;-77
2021/07/08 05:55:45;;;;;;;3.10;2.80;;;18.30;99.90;;;;;;5031451;28;20441;-77
2021/07/08 05:58:30;;;;;;;4.13;2.80;;;18.40;99.90;;;;;;5046023;28;21150;-75
2021/07/08 06:01:16;;;;;;;5.00;2.23;;;18.50;99.90;;;;;;5047355;28;20891;-77
2021/07/08 06:04:03;;;;;;;5.57;2.60;;;18.50;99.90;;;;;;5053413;28;20409;-77
2021/07/08 06:06:49;;;;;;;4.90;2.70;;;18.40;99.90;;;;;;5033301;28;20488;-75
2021/07/08 06:09:34;;;;;;;7.47;2.70;;;18.40;99.90;;;;;;5030391;28;20578;-77
2021/07/08 06:12:22;;;;;;;5.40;2.90;;;18.40;99.90;;;;;;5042233;28;20442;-77
2021/07/08 06:15:09;;;;;;;3.90;1.80;;;18.50;99.90;;;;;;5041866;28;20405;-77
2021/07/08 06:17:54;;;;;;;4.80;2.70;;;18.50;99.90;;;;;;5037480;28;21038;-76
2021/07/08 06:20:41;;;;;;;6.07;1.80;;;18.60;99.90;;;;;;5034742;28;20402;-77
2021/07/08 06:23:27;;;;;;;4.33;1.97;;;18.70;99.90;;;;;;5041520;28;20433;-76
2021/07/08 06:26:13;;;;;;;7.43;2.90;;;18.70;99.90;;;;;;5027118;28;20452;-76
2021/07/08 06:28:59;;;;;;;7.40;2.90;;;18.80;99.90;;;;;;5037110;28;20532;-77
2021/07/08 06:31:45;;;;;;;4.27;2.60;;;18.70;99.90;;;;;;5017581;28;20475;-75
2021/07/08 06:34:30;;;;;;;4.70;2.43;;;18.70;99.90;;;;;;5044697;28;20545;-75
2021/07/08 06:37:17;;;;;;;6.10;2.40;;;18.80;99.90;;;;;;5045699;28;20812;-75
2021/07/08 06:40:04;;;;;;;6.10;1.77;;;18.90;99.90;;;;;;5034967;28;20537;-76
2021/07/08 06:42:50;;;;;;;2.63;2.10;;;18.90;99.90;;;;;;5033427;28;20449;-76
2021/07/08 06:45:36;;;;;;;4.80;1.80;;;19.00;99.90;;;;;;5041656;28;20426;-76
2021/07/08 06:48:22;;;;;;;7.73;2.00;;;19.10;99.90;;;;;;5043033;28;20448;-76
2021/07/08 06:51:08;;;;;;;2.97;1.80;;;19.20;99.90;;;;;;5047323;28;20442;-76
2021/07/08 06:53:56;;;;;;;4.90;2.20;;;19.20;99.90;;;;;;5022834;28;20422;-77
2021/07/08 06:56:42;;;;;;;2.23;1.70;;;19.30;99.90;;;;;;5036895;28;20504;-77
2021/07/08 06:59:27;;;;;;;3.50;1.83;;;19.40;99.90;;;;;;5045506;28;20881;-77
2021/07/08 07:02:13;;;;;;;6.43;1.83;;;19.50;99.90;;;;;;5039962;28;20449;-77
2021/07/08 07:04:58;;;;;;;4.83;1.80;;;19.60;99.90;;;;;;5039304;28;20455;-75
2021/07/08 07:07:45;;;;;;;3.50;1.30;;;19.80;99.90;;;;;;5014048;28;20463;-78
2021/07/08 07:10:32;;;;;;;5.30;1.60;;;19.90;99.90;;;;;;5036464;28;20413;-77
2021/07/08 07:13:17;;;;;;;4.67;1.57;;;20.20;99.90;;;;;;5036186;28;20426;-77
2021/07/08 07:16:03;;;;;;;4.17;1.73;;;20.40;99.90;;;;;;5041290;28;20484;-76
2021/07/08 07:18:49;;;;;;;2.60;1.43;;;20.60;99.90;;;;;;5036852;28;20447;-77
2021/07/08 07:21:35;;;;;;;3.27;1.50;;;20.70;99.90;;;;;;5031771;28;20475;-77
2021/07/08 07:24:20;;;;;;;9.70;1.60;;;20.70;99.90;;;;;;5032771;28;20416;-77
2021/07/08 07:27:07;;;;;;;4.03;1.73;;;20.70;99.90;;;;;;5049501;28;20817;-76
2021/07/08 07:29:53;;;;;;;14.43;2.13;;;20.70;99.90;;;;;;5041849;28;20435;-76
2021/07/08 07:32:39;;;;;;;3.07;1.40;;;20.70;99.90;;;;;;5046462;28;20991;-76
2021/07/08 07:35:25;;;;;;;4.67;1.67;;;20.70;99.90;;;;;;5051299;28;20397;-77
2021/07/08 07:38:12;;;;;;;3.20;1.60;;;20.70;99.90;;;;;;5041451;28;20591;-77
2021/07/08 07:40:57;;;;;;;2.73;1.70;;;20.60;99.90;;;;;;5038307;28;20467;-76
2021/07/08 07:43:46;;;;;;;2.73;1.77;;;20.60;99.90;;;;;;5038761;28;20467;-76
2021/07/08 07:46:33;;;;;;;3.17;1.60;;;20.60;99.90;;;;;;5037275;28;20883;-77
2021/07/08 07:49:18;;;;;;;4.90;1.50;;;20.60;99.90;;;;;;5041833;28;21050;-75
2021/07/08 07:52:05;;;;;;;3.60;2.00;;;20.70;99.90;;;;;;5038011;28;20973;-75
2021/07/08 07:54:51;;;;;;;5.70;2.50;;;20.80;99.90;;;;;;5035422;28;20455;-75
2021/07/08 07:57:37;;;;;;;6.60;2.23;;;20.80;99.90;;;;;;5040527;28;20449;-75
2021/07/08 08:00:24;;;;;;;2.27;1.93;;;20.90;99.90;;;;;;5042571;28;20562;-75
2021/07/08 08:03:10;;;;;;;3.93;2.17;;;20.90;99.90;;;;;;5055106;22;20573;-72
2021/07/08 08:08:27;;;;;;;3.03;2.33;;;21.10;99.90;;;;;;5031576;28;20413;-73
2021/07/08 08:09:03;;;;;;;6.00;2.57;;;21.30;99.90;;;;;;5042802;28;20446;-73
2021/07/08 08:11:49;;;;;;;2.97;2.27;;;21.50;99.90;;;;;;5044838;28;20470;-72
2021/07/08 08:14:34;;;;;;;2.80;1.80;;;21.60;99.90;;;;;;5050704;28;20463;-72
2021/07/08 08:17:21;;;;;;;2.40;2.10;;;21.90;99.90;;;;;;5051550;28;20421;-73
2021/07/08 08:20:08;;;;;;;3.33;1.70;;;22.00;99.90;;;;;;5049248;28;20526;-72
2021/07/08 08:22:54;;;;;;;3.73;1.90;;;22.00;99.90;;;;;;5044108;28;20475;-72
2021/07/08 08:25:40;;;;;;;4.13;2.63;;;21.90;99.90;;;;;;5050116;28;20525;-73
2021/07/08 08:28:26;;;;;;;3.00;2.10;;;21.90;99.90;;;;;;5049623;28;20483;-72
2021/07/08 08:31:11;;;;;;;3.57;2.20;;;21.90;99.90;;;;;;5050444;28;20447;-73
2021/07/08 08:33:58;;;;;;;5.40;2.50;;;22.00;99.90;;;;;;5048654;28;20447;-72
2021/07/08 08:36:45;;;;;;;3.03;2.27;;;22.00;99.90;;;;;;5042450;28;20419;-72
2021/07/08 08:39:31;;;;;;;3.70;2.70;;;22.00;99.90;;;;;;5045736;28;20468;-72
2021/07/08 08:42:16;;;;;;;2.60;1.80;;;22.00;99.90;;;;;;5045186;28;20515;-73
2021/07/08 08:45:02;;;;;;;3.30;1.80;;;22.00;99.90;;;;;;5042637;28;20475;-73
2021/07/08 08:47:56;;;;;;;3.80;1.90;;;22.00;99.90;;;;;;5050920;28;20495;-72
2021/07/08 08:50:46;;;;;;;4.37;2.63;;;22.00;99.90;;;;;;5051662;28;20473;-73
2021/07/08 08:53:32;;;;;;;2.87;2.00;;;22.00;99.90;;;;;;5050798;28;20441;-73
2021/07/08 08:56:18;;;;;;;4.93;2.80;;;22.00;99.90;;;;;;5045542;28;20460;-73
2021/07/08 08:59:03;;;;;;;3.33;2.37;;;22.00;99.90;;;;;;5039585;28;20457;-74
2021/07/08 09:02:10;;;;;;;2.80;2.03;;;22.00;99.90;;;;;;5048200;28;20526;-74
2021/07/08 09:04:55;;;;;;;2.97;1.70;;;22.00;99.90;;;;;;5038519;28;20423;-75
2021/07/08 09:07:42;;;;;;;5.60;2.30;;;22.00;99.90;;;;;;5036887;28;20467;-75
2021/07/08 09:10:28;;;;;;;3.50;2.40;;;21.90;99.90;;;;;;5047914;28;20591;-73
2021/07/08 09:13:15;;;;;;;2.53;1.97;;;21.90;99.90;;;;;;5053839;28;20473;-73
2021/07/08 09:16:10;;;;;;;4.20;2.03;;;21.80;99.90;;;;;;5048870;28;20451;-73
2021/07/08 09:19:08;;;;;;;3.90;2.03;;;21.70;99.90;;;;;;5054580;28;20940;-73
2021/07/08 09:21:59;;;;;;;2.40;1.80;;;21.60;99.90;;;;;;5054513;28;20456;-73
2021/07/08 09:24:46;;;;;;;2.47;2.00;;;21.50;99.90;;;;;;5049837;28;20996;-72
2021/07/08 09:27:32;;;;;;;3.73;2.10;;;21.40;99.90;;;;;;5054870;28;20458;-74
2021/07/08 09:30:24;;;;;;;2.97;2.27;;;21.40;99.90;;;;;;5054915;28;20548;-73
2021/07/08 09:33:33;;;;;;;3.63;2.00;;;21.40;99.90;;;;;;5054518;28;20428;-73
2021/07/08 09:36:18;;;;;;;3.37;2.33;;;21.40;99.90;;;;;;5054176;28;20972;-73
2021/07/08 09:39:07;;;;;;;2.70;2.00;;;21.40;99.90;;;;;;5055282;28;20483;-73
2021/07/08 09:41:54;;;;;;;3.10;2.10;;;21.40;99.90;;;;;;5045357;28;20475;-73
2021/07/08 09:44:40;;;;;;;3.07;2.60;;;21.50;99.90;;;;;;5045380;28;20418;-73
2021/07/08 09:47:27;;;;;;;2.53;1.97;;;21.50;99.90;;;;;;5048543;28;20492;-74
2021/07/08 09:50:15;;;;;;;2.57;1.90;;;21.50;99.90;;;;;;5051614;28;20522;-73
2021/07/08 09:53:02;;;;;;;2.53;1.77;;;21.60;99.90;;;;;;5053061;28;20717;-73
2021/07/08 09:56:20;;;;;;;3.50;1.97;;;21.60;99.90;;;;;;5048825;28;20468;-73
2021/07/08 09:59:07;;;;;;;3.40;2.13;;;21.50;99.90;;;;;;5047588;28;20818;-74
2021/07/08 10:01:58;;;;;;;2.00;1.53;;;21.50;99.90;;;;;;5045438;28;20970;-74
2021/07/08 10:04:43;;;;;;;5.47;2.27;;;21.50;99.90;;;;;;5039725;28;20458;-73
2021/07/08 10:07:29;;;;;;;3.07;2.33;;;21.60;99.90;;;;;;5044453;28;20448;-71
2021/07/08 10:10:16;;;;;;;3.37;2.10;;;21.60;99.90;;;;;;5051133;28;21004;-74
2021/07/08 10:13:03;;;;;;;2.63;1.93;;;21.50;99.90;;;;;;5050051;28;20471;-73
2021/07/08 10:15:51;;;;;;;6.43;1.90;;;21.50;99.90;;;;;;5049272;28;20426;-74
2021/07/08 10:18:39;;;;;;;2.33;2.00;;;21.50;99.90;;;;;;5046807;28;20968;-74
2021/07/08 10:21:29;;;;;;;2.70;2.00;;;21.40;99.90;;;;;;5053423;28;20399;-71
2021/07/08 10:24:15;;;;;;;3.77;2.10;;;21.40;99.90;;;;;;5051628;28;20427;-73
2021/07/08 10:27:01;;;;;;;4.80;1.80;;;21.40;99.90;;;;;;5053644;28;20407;-73
2021/07/08 10:29:49;;;;;;;4.30;2.57;;;21.40;99.90;;;;;;5053527;28;20461;-73
2021/07/08 10:32:37;;;;;;;8.50;5.70;;;21.30;99.90;;;;;;5033355;28;20954;-73
2021/07/08 10:35:40;;;;;;;6.73;2.90;;;21.30;99.90;;;;;;5044961;28;20451;-73
2021/07/08 10:38:35;;;;;;;9.33;6.20;;;21.30;99.90;;;;;;5046111;28;20414;-73
2021/07/08 10:41:43;;;;;;;21.47;9.50;;;21.20;99.90;;;;;;5051191;28;20448;-73
2021/07/08 10:44:40;;;;;;;6.40;3.87;;;21.20;99.90;;;;;;5049366;28;20813;-73
2021/07/08 10:47:39;;;;;;;4.93;3.70;;;21.20;99.90;;;;;;5049948;28;20517;-73
2021/07/08 10:50:40;;;;;;;4.47;2.97;;;21.30;99.90;;;;;;5039453;28;20534;-73
2021/07/08 10:53:32;;;;;;;5.10;2.83;;;21.20;99.90;;;;;;5048249;28;20467;-73
2021/07/08 10:56:23;;;;;;;4.90;3.27;;;21.30;99.90;;;;;;5050737;28;20947;-73
2021/07/08 10:59:14;;;;;;;7.23;4.10;;;21.40;99.90;;;;;;5049167;28;20420;-73
2021/07/08 11:01:59;;;;;;;3.63;3.03;;;21.50;99.90;;;;;;5044993;28;20834;-73
2021/07/08 11:04:49;;;;;;;3.20;2.43;;;21.60;99.90;;;;;;5048874;28;20464;-73
2021/07/08 11:07:45;;;;;;;3.90;2.07;;;21.60;99.90;;;;;;5051127;28;20428;-73
2021/07/08 11:10:35;;;;;;;3.17;2.33;;;21.70;99.90;;;;;;5050443;28;20994;-73
2021/07/08 11:13:28;;;;;;;3.80;2.63;;;21.70;99.90;;;;;;5050513;28;20451;-73
2021/07/08 11:16:39;;;;;;;6.70;2.50;;;21.80;99.90;;;;;;5049270;28;20426;-73
2021/07/08 11:19:36;;;;;;;5.30;2.10;;;21.90;99.90;;;;;;5043857;28;20455;-74
2021/07/08 11:22:36;;;;;;;2.50;2.20;;;21.90;99.90;;;;;;5048662;28;20447;-73
2021/07/08 11:25:40;;;;;;;3.77;2.40;;;22.00;99.90;;;;;;5051563;28;20438;-73
2021/07/08 11:28:30;;;;;;;4.70;2.97;;;21.90;99.90;;;;;;5052378;28;20458;-73
2021/07/08 11:31:16;;;;;;;4.47;2.10;;;21.70;99.90;;;;;;5050698;28;20434;-73
2021/07/08 11:34:01;;;;;;;3.60;2.73;;;21.70;99.90;;;;;;5046454;28;20426;-73
2021/07/08 11:36:48;;;;;;;3.00;2.47;;;21.80;99.90;;;;;;5046543;28;20511;-73
2021/07/08 11:39:36;;;;;;;4.30;2.87;;;21.90;99.90;;;;;;5048592;28;21005;-72
2021/07/08 11:42:24;;;;;;;4.50;2.43;;;21.90;99.90;;;;;;5049669;28;20478;-73
2021/07/08 11:45:12;;;;;;;4.63;3.00;;;22.00;99.90;;;;;;5051706;28;21007;-73
2021/07/08 11:47:59;;;;;;;2.90;2.43;;;22.00;99.90;;;;;;5052170;28;20411;-73
2021/07/08 11:50:45;;;;;;;4.43;2.27;;;22.00;99.90;;;;;;5051740;28;20488;-72
2021/07/08 11:53:31;;;;;;;4.13;2.70;;;22.00;99.90;;;;;;5048990;28;20547;-73
2021/07/08 11:56:19;;;;;;;4.37;2.43;;;22.00;99.90;;;;;;5051403;28;20463;-72
2021/07/08 11:59:05;;;;;;;3.77;2.60;;;22.00;99.90;;;;;;5050368;28;20452;-73
2021/07/08 12:01:51;;;;;;;6.70;3.00;;;21.90;99.90;;;;;;5048821;28;20480;-73
2021/07/08 12:04:36;;;;;;;3.60;2.43;;;21.90;99.90;;;;;;5050483;28;20969;-73
2021/07/08 12:07:22;;;;;;;4.77;2.77;;;21.80;99.90;;;;;;5045864;28;20802;-73
2021/07/08 12:10:10;;;;;;;3.40;2.90;;;21.80;99.90;;;;;;5051023;28;20468;-73
2021/07/08 12:12:58;;;;;;;3.50;3.20;;;21.70;99.90;;;;;;5043656;28;20469;-72
2021/07/08 12:15:44;;;;;;;4.33;3.00;;;21.70;99.90;;;;;;5048675;28;20516;-73
2021/07/08 12:18:39;;;;;;;4.00;3.30;;;21.60;99.90;;;;;;5049014;28;20922;-72
2021/07/08 12:21:27;;;;;;;3.50;3.20;;;21.60;99.90;;;;;;5045093;28;20452;-72
2021/07/08 12:24:23;;;;;;;3.93;3.20;;;21.50;99.90;;;;;;5048374;28;20425;-70
2021/07/08 12:27:10;;;;;;;3.73;3.20;;;21.50;99.90;;;;;;5050508;28;20431;-70
2021/07/08 12:29:56;;;;;;;4.30;3.67;;;21.60;99.90;;;;;;5045940;28;20483;-71
2021/07/08 12:32:42;;;;;;;4.60;3.80;;;21.70;99.90;;;;;;5044075;28;20780;-70
2021/07/08 12:35:38;;;;;;;5.00;3.33;;;21.70;99.90;;;;;;5048562;28;20412;-70
2021/07/08 12:38:24;;;;;;;4.67;4.27;;;21.70;99.90;;;;;;5042704;28;20801;-70
2021/07/08 12:41:10;;;;;;;6.47;4.40;;;21.50;99.90;;;;;;5045554;28;20538;-70
2021/07/08 12:43:56;;;;;;;5.37;4.50;;;21.30;99.90;;;;;;5038254;28;20785;-74
2021/07/08 12:46:44;;;;;;;5.50;4.87;;;21.20;99.90;;;;;;5042277;28;20426;-74
2021/07/08 12:49:30;;;;;;;7.30;5.27;;;21.30;99.90;;;;;;5046696;28;20474;-74
2021/07/08 12:52:16;;;;;;;6.70;6.10;;;21.40;99.90;;;;;;5045545;28;20610;-74
2021/07/08 12:55:02;;;;;;;7.57;5.40;;;21.30;99.90;;;;;;5038035;28;20514;-74
2021/07/08 12:58:00;;;;;;;8.80;5.53;;;21.30;99.90;;;;;;5044500;28;20909;-74
2021/07/08 13:00:46;;;;;;;8.10;5.17;;;21.20;99.90;;;;;;5040729;28;20933;-74
2021/07/08 13:03:35;;;;;;;5.23;4.57;;;21.00;99.90;;;;;;5044248;28;20836;-74
2021/07/08 13:06:24;;;;;;;6.97;4.93;;;20.80;99.90;;;;;;5047041;28;20409;-73
2021/07/08 13:09:11;;;;;;;5.73;5.03;;;20.80;99.90;;;;;;5052381;28;20446;-73
2021/07/08 13:11:57;;;;;;;6.77;4.87;;;20.70;99.90;;;;;;5050843;28;20508;-73
2021/07/08 13:14:43;;;;;;;7.10;4.50;;;20.80;99.90;;;;;;5050232;28;20440;-73
2021/07/08 13:17:30;;;;;;;7.50;5.70;;;20.60;99.90;;;;;;5050977;28;20470;-73
2021/07/08 13:20:23;;;;;;;8.40;5.37;;;20.60;99.90;;;;;;5050655;28;20439;-72
2021/07/08 13:23:17;;;;;;;6.33;4.73;;;20.50;99.90;;;;;;5043737;28;20470;-73
2021/07/08 13:26:10;;;;;;;5.87;5.10;;;20.50;99.90;;;;;;5050285;28;20439;-74
2021/07/08 13:28:56;;;;;;;6.03;4.77;;;20.40;99.90;;;;;;5049810;28;20812;-73
2021/07/08 13:31:41;;;;;;;4.80;4.30;;;20.40;99.90;;;;;;5047720;28;20417;-73
2021/07/08 13:34:27;;;;;;;4.40;4.00;;;20.40;99.90;;;;;;5046856;28;20426;-71
2021/07/08 13:37:21;;;;;;;5.23;3.63;;;20.40;99.90;;;;;;5050444;28;20432;-73
2021/07/08 13:40:09;;;;;;;5.10;3.43;;;20.40;99.90;;;;;;5055019;28;20440;-73
2021/07/08 13:42:55;;;;;;;5.17;4.30;;;20.60;99.90;;;;;;5050247;28;20786;-73
2021/07/08 13:45:40;;;;;;;4.70;3.90;;;20.60;99.90;;;;;;5050347;28;20424;-72
2021/07/08 13:48:36;;;;;;;7.10;4.93;;;20.70;99.90;;;;;;5049757;28;20483;-73
2021/07/08 13:51:23;;;;;;;6.40;5.00;;;20.60;99.90;;;;;;5045747;28;20479;-73
2021/07/08 13:54:10;;;;;;;7.50;6.20;;;20.70;99.90;;;;;;5038049;28;20451;-73
2021/07/08 13:56:55;;;;;;;7.93;5.70;;;20.80;99.90;;;;;;5043877;28;20444;-72
2021/07/08 13:59:42;;;;;;;8.27;6.70;;;20.80;99.90;;;;;;5051523;28;20429;-73
2021/07/08 14:02:28;;;;;;;9.43;6.67;;;20.80;99.90;;;;;;5043113;28;20462;-73
2021/07/08 14:05:14;;;;;;;7.50;6.37;;;20.60;99.90;;;;;;5049730;28;20441;-73
2021/07/08 14:08:00;;;;;;;13.90;8.00;;;20.60;99.90;;;;;;5049434;28;20425;-73
2021/07/08 14:10:47;;;;;;;9.50;7.30;;;20.60;99.90;;;;;;5054673;28;20605;-73
2021/07/08 14:13:33;;;;;;;16.27;7.47;;;20.50;99.90;;;;;;5053609;28;20470;-73
2021/07/08 14:16:18;;;;;;;10.63;7.03;;;20.60;99.90;;;;;;5054056;28;20417;-74
2021/07/08 14:19:04;;;;;;;7.60;6.90;;;20.60;99.90;;;;;;5047517;28;20469;-73
2021/07/08 14:21:51;;;;;;;8.03;6.97;;;20.60;99.90;;;;;;5036210;28;20429;-74
2021/07/08 14:24:36;;;;;;;8.00;6.83;;;20.70;99.90;;;;;;5054946;28;21029;-74
2021/07/08 14:27:23;;;;;;;7.10;5.70;;;20.80;99.90;;;;;;5054032;28;20462;-73
2021/07/08 14:30:10;;;;;;;6.80;5.50;;;20.90;99.90;;;;;;5057033;28;20465;-74